Time;durP1;ratioP1;P1;durP2;ratioP2;P2;SDS_P1;SDS_P2;PMS_P1;PMS_P2;Temp;Humidity;BMP_temperature;BMP_pressure;BME280_temperature;BME280_humidity;BME280_pressure;Samples;Min_cycle;Max_cycle;Signal;HPM_P1;HPM_P2
2022/03/05 00:02:14;;;;;;;6.90;5.28;;;;;;;0.51;76.34;101699.13;4968468;28;20038;-85
2022/03/05 00:04:43;;;;;;;9.98;5.63;;;;;;;0.44;76.77;101692.78;4966401;28;20042;-84
2022/03/05 00:07:09;;;;;;;8.20;6.03;;;;;;;0.34;77.08;101694.06;4964048;28;20510;-84
2022/03/05 00:09:36;;;;;;;8.20;4.97;;;;;;;0.24;76.97;101689.25;4967929;28;20042;-84
2022/03/05 00:12:03;;;;;;;12.32;6.95;;;;;;;0.10;77.82;101696.28;4964809;28;20054;-84
2022/03/05 00:14:30;;;;;;;13.95;5.55;;;;;;;0.02;78.60;101697.59;4963920;28;20042;-84
2022/03/05 00:16:56;;;;;;;11.52;6.15;;;;;;;-0.08;78.77;101691.97;4966183;28;20058;-84
2022/03/05 00:19:23;;;;;;;10.43;6.15;;;;;;;-0.14;79.39;101690.75;4949373;28;20054;-83
2022/03/05 00:21:49;;;;;;;9.85;6.25;;;;;;;-0.19;79.32;101691.41;4965323;28;20049;-83
2022/03/05 00:24:19;;;;;;;12.13;6.30;;;;;;;-0.18;79.61;101689.72;4960885;28;20124;-84
2022/03/05 00:26:46;;;;;;;9.80;6.15;;;;;;;-0.17;78.31;101687.22;4952000;28;20054;-84
2022/03/05 00:29:13;;;;;;;13.52;6.35;;;;;;;-0.20;78.21;101688.75;4952085;28;20061;-84
2022/03/05 00:31:39;;;;;;;11.07;5.53;;;;;;;-0.19;77.58;101685.38;4951585;28;20145;-83
2022/03/05 00:34:06;;;;;;;9.15;5.00;;;;;;;-0.23;77.65;101692.03;4962592;28;20054;-84
2022/03/05 00:36:36;;;;;;;10.65;5.80;;;;;;;-0.30;77.75;101691.66;4944370;28;20141;-84
2022/03/05 00:39:02;;;;;;;11.30;6.20;;;;;;;-0.36;77.96;101695.66;4960942;28;20447;-84
2022/03/05 00:41:29;;;;;;;10.25;6.15;;;;;;;-0.39;79.38;101694.59;4946755;28;20073;-84
2022/03/05 00:43:55;;;;;;;11.82;6.25;;;;;;;-0.39;80.44;101699.75;4956297;28;20054;-84
2022/03/05 00:46:23;;;;;;;12.43;6.95;;;;;;;-0.45;80.47;101695.19;4966088;28;20050;-84
2022/03/05 00:48:49;;;;;;;9.75;6.05;;;;;;;-0.47;81.98;101698.47;4962021;28;20077;-84
2022/03/05 00:51:16;;;;;;;12.45;7.57;;;;;;;-0.47;83.55;101698.47;4948276;28;20583;-84
2022/03/05 00:53:45;;;;;;;8.88;6.35;;;;;;;-0.51;83.31;101705.13;4950984;28;20054;-84
2022/03/05 00:56:14;;;;;;;10.15;7.07;;;;;;;-0.54;82.97;101699.84;4964897;28;20034;-84
2022/03/05 00:58:41;;;;;;;14.85;8.52;;;;;;;-0.58;84.56;101705.63;4962386;28;20057;-84
2022/03/05 01:01:07;;;;;;;13.15;7.03;;;;;;;-0.55;84.74;101708.34;4950352;28;20070;-84
2022/03/05 01:03:40;;;;;;;14.15;7.20;;;;;;;-0.60;84.26;101709.78;4953117;28;20054;-83
2022/03/05 01:06:07;;;;;;;10.02;6.40;;;;;;;-0.67;84.48;101701.75;4970902;28;20054;-84
2022/03/05 01:08:34;;;;;;;13.18;6.97;;;;;;;-0.73;85.25;101696.31;4972694;28;20403;-84
2022/03/05 01:11:02;;;;;;;11.80;6.97;;;;;;;-0.76;85.66;101702.94;4969683;28;20137;-84
2022/03/05 01:13:29;;;;;;;11.32;7.13;;;;;;;-0.77;86.45;101707.22;4963213;28;20073;-84
2022/03/05 01:15:55;;;;;;;11.82;6.88;;;;;;;-0.77;87.10;101702.09;4953318;28;20396;-84
2022/03/05 01:18:22;;;;;;;12.48;7.53;;;;;;;-0.75;87.88;101704.72;4948705;28;20046;-84
2022/03/05 01:20:49;;;;;;;17.45;7.28;;;;;;;-0.79;88.07;101695.97;4952229;28;20050;-84
2022/03/05 01:23:15;;;;;;;14.57;9.18;;;;;;;-0.82;87.72;101692.31;4950973;28;20051;-84
2022/03/05 01:25:42;;;;;;;13.77;8.60;;;;;;;-0.83;88.81;101694.03;4971023;28;20392;-84
2022/03/05 01:28:08;;;;;;;12.95;7.60;;;;;;;-0.82;89.07;101700.94;4954214;28;20042;-84
2022/03/05 01:30:35;;;;;;;10.55;7.68;;;;;;;-0.78;89.95;101700.31;4971003;28;20061;-84
2022/03/05 01:33:02;;;;;;;13.93;7.57;;;;;;;-0.79;90.59;101698.53;4957239;28;20061;-84
2022/03/05 01:35:28;;;;;;;16.65;8.70;;;;;;;-0.78;90.45;101704.53;4976927;28;20038;-84
2022/03/05 01:37:55;;;;;;;14.70;7.10;;;;;;;-0.85;90.57;101699.09;4968138;28;20049;-84
2022/03/05 01:40:21;;;;;;;14.80;8.27;;;;;;;-0.87;91.04;101702.38;4973083;28;20056;-84
2022/03/05 01:42:48;;;;;;;14.32;8.10;;;;;;;-0.91;92.14;101696.19;4952458;28;20148;-83
2022/03/05 01:45:14;;;;;;;12.23;7.50;;;;;;;-0.94;92.50;101689.97;4958879;28;20054;-84
2022/03/05 01:47:42;;;;;;;13.00;7.05;;;;;;;-0.94;92.33;101687.41;4951966;28;20042;-84
2022/03/05 01:50:10;;;;;;;12.07;7.53;;;;;;;-0.97;93.51;101684.69;4969505;28;20046;-83
2022/03/05 01:52:37;;;;;;;16.15;8.85;;;;;;;-0.96;93.33;101686.47;4965813;28;20077;-84
2022/03/05 01:55:11;;;;;;;15.95;8.68;;;;;;;-0.99;93.17;101687.19;4966233;28;20120;-84
2022/03/05 01:57:38;;;;;;;16.92;8.52;;;;;;;-1.02;94.00;101681.84;4969030;28;20056;-83
2022/03/05 02:00:08;;;;;;;16.65;8.18;;;;;;;-1.02;94.67;101681.84;4972451;28;20061;-84
2022/03/05 02:02:34;;;;;;;15.85;8.50;;;;;;;-1.05;94.10;101684.25;4967905;28;20112;-84
2022/03/05 02:05:01;;;;;;;15.52;8.80;;;;;;;-1.03;96.18;101678.41;4967631;28;20046;-84
2022/03/05 02:07:28;;;;;;;16.52;8.90;;;;;;;-1.02;95.59;101682.75;4949983;28;20057;-84
2022/03/05 02:09:55;;;;;;;14.80;7.70;;;;;;;-1.03;95.29;101677.50;4972901;28;20130;-84
2022/03/05 02:12:34;;;;;;;15.48;8.98;;;;;;;-0.99;96.14;101684.59;4967266;28;20378;-84
2022/03/05 02:15:05;;;;;;;13.50;7.75;;;;;;;-1.01;95.90;101676.78;4965240;28;20177;-84
2022/03/05 02:17:32;;;;;;;17.15;8.82;;;;;;;-0.98;96.32;101685.47;4969766;28;20088;-84
2022/03/05 02:19:59;;;;;;;14.27;8.23;;;;;;;-0.98;96.32;101680.34;4955090;28;20061;-84
2022/03/05 02:22:26;;;;;;;12.48;7.05;;;;;;;-1.04;95.77;101678.31;4950772;28;20390;-84
2022/03/05 02:24:55;;;;;;;12.50;7.85;;;;;;;-1.11;96.11;101677.06;4967878;28;20045;-84
2022/03/05 02:27:34;;;;;;;13.30;7.97;;;;;;;-1.14;96.57;101676.06;4950195;28;20057;-83
2022/03/05 02:30:04;;;;;;;16.73;7.20;;;;;;;-1.18;96.14;101682.69;4974776;28;20151;-84
2022/03/05 02:32:31;;;;;;;12.52;7.80;;;;;;;-1.21;97.06;101674.84;4948317;28;20050;-84
2022/03/05 02:34:58;;;;;;;14.10;7.72;;;;;;;-1.29;96.82;101671.84;4963588;28;20060;-84
2022/03/05 02:37:24;;;;;;;17.63;9.07;;;;;;;-1.34;97.44;101668.13;4964756;28;20057;-84
2022/03/05 02:39:51;;;;;;;17.00;8.55;;;;;;;-1.36;97.33;101665.44;4966645;28;20043;-84
2022/03/05 02:42:18;;;;;;;14.27;8.68;;;;;;;-1.37;97.41;101663.69;4962911;28;20045;-84
2022/03/05 02:44:46;;;;;;;15.73;8.50;;;;;;;-1.31;98.89;101673.41;4947546;28;20060;-84
2022/03/05 02:47:13;;;;;;;13.70;8.20;;;;;;;-1.26;99.12;101666.84;4950817;28;20065;-84
2022/03/05 02:49:40;;;;;;;15.07;8.48;;;;;;;-1.17;98.15;101662.22;4947259;28;20058;-84
2022/03/05 02:52:07;;;;;;;14.88;7.85;;;;;;;-1.10;97.64;101670.28;4957211;28;20141;-84
2022/03/05 02:54:34;;;;;;;15.57;9.23;;;;;;;-1.10;96.84;101678.84;4946749;28;20069;-84
2022/03/05 02:57:00;;;;;;;20.05;9.18;;;;;;;-1.15;96.53;101664.88;4949494;28;20185;-84
2022/03/05 02:59:27;;;;;;;13.55;6.88;;;;;;;-1.23;96.07;101671.28;4964434;28;20054;-84
2022/03/05 03:01:53;;;;;;;15.35;7.72;;;;;;;-1.28;98.27;101670.13;4954522;28;20477;-83
2022/03/05 03:04:20;;;;;;;14.68;8.95;;;;;;;-1.26;98.30;101663.41;4960690;28;20042;-84
2022/03/05 03:06:47;;;;;;;17.67;9.57;;;;;;;-1.28;98.70;101663.31;4959873;28;20085;-84
2022/03/05 03:09:13;;;;;;;13.88;7.90;;;;;;;-1.34;97.44;101653.59;4946908;28;20132;-84
2022/03/05 03:11:40;;;;;;;22.80;8.85;;;;;;;-1.38;98.26;101656.78;4966892;28;20047;-84
2022/03/05 03:14:06;;;;;;;13.85;8.50;;;;;;;-1.42;98.51;101649.72;4968986;28;20050;-84
2022/03/05 03:16:33;;;;;;;13.02;6.90;;;;;;;-1.48;98.29;101648.50;4949473;28;20042;-82
2022/03/05 03:18:59;;;;;;;14.68;8.70;;;;;;;-1.54;98.29;101652.47;4947594;28;20082;-84
2022/03/05 03:21:26;;;;;;;16.85;9.00;;;;;;;-1.58;98.47;101658.22;4966810;28;20125;-84
2022/03/05 03:23:53;;;;;;;15.32;7.95;;;;;;;-1.56;100.00;101660.91;4965453;28;20408;-84
2022/03/05 03:26:19;;;;;;;17.65;10.02;;;;;;;-1.57;99.47;101654.84;4965473;28;20743;-84
2022/03/05 03:28:46;;;;;;;16.00;8.43;;;;;;;-1.52;100.00;101663.72;4944877;28;20049;-84
2022/03/05 03:31:12;;;;;;;16.85;7.95;;;;;;;-1.56;98.55;101656.63;4953170;28;20050;-84
2022/03/05 03:33:39;;;;;;;15.30;7.88;;;;;;;-1.57;99.05;101661.69;4968947;28;20108;-84
2022/03/05 03:36:05;;;;;;;17.67;8.48;;;;;;;-1.59;99.01;101666.75;4942189;28;20054;-84
2022/03/05 03:38:32;;;;;;;19.17;8.27;;;;;;;-1.62;98.78;101663.09;4949468;28;20532;-84
2022/03/05 03:40:58;;;;;;;13.32;8.20;;;;;;;-1.62;99.07;101671.69;4960209;28;20565;-84
2022/03/05 03:43:25;;;;;;;14.95;7.43;;;;;;;-1.65;98.40;101668.94;4948989;28;20409;-84
2022/03/05 03:45:52;;;;;;;14.45;8.43;;;;;;;-1.66;99.34;101672.31;4967140;28;20119;-84
2022/03/05 03:48:18;;;;;;;16.13;8.50;;;;;;;-1.64;99.04;101674.97;4963797;28;20077;-84
2022/03/05 03:50:45;;;;;;;16.20;7.90;;;;;;;-1.62;98.78;101675.94;4966767;28;20054;-84
2022/03/05 03:53:11;;;;;;;13.80;7.60;;;;;;;-1.64;98.19;101672.38;4958658;28;20066;-84
2022/03/05 03:55:38;;;;;;;15.35;8.02;;;;;;;-1.67;97.92;101673.09;4963979;28;20061;-83
2022/03/05 03:58:04;;;;;;;14.13;7.32;;;;;;;-1.70;97.62;101675.50;4952207;28;20053;-84
2022/03/05 04:00:31;;;;;;;14.73;8.05;;;;;;;-1.69;97.61;101672.16;4963364;28;20045;-84
2022/03/05 04:02:58;;;;;;;13.70;7.72;;;;;;;-1.67;96.44;101667.97;4954207;28;20042;-84
2022/03/05 04:05:24;;;;;;;14.55;8.57;;;;;;;-1.68;96.04;101671.34;4963946;28;20053;-84
2022/03/05 04:10:35;;;;;;;12.40;7.28;;;;;;;-1.71;94.77;101674.63;4969160;28;20138;-84
2022/03/05 04:13:01;;;;;;;13.27;7.43;;;;;;;-1.73;94.93;101681.34;4963580;28;20056;-85
2022/03/05 04:15:28;;;;;;;22.23;8.48;;;;;;;-1.75;94.51;101682.94;4950024;28;20145;-85
2022/03/05 04:17:54;;;;;;;13.30;7.03;;;;;;;-1.75;93.96;101684.63;4962196;28;20057;-84
2022/03/05 04:20:22;;;;;;;13.15;7.13;;;;;;;-1.79;93.58;101688.69;4948485;28;20408;-85
2022/03/05 04:22:48;;;;;;;12.48;7.25;;;;;;;-1.83;93.27;101689.31;4946447;28;20132;-84
2022/03/05 04:25:15;;;;;;;13.73;6.82;;;;;;;-1.84;92.78;101693.56;4942898;28;20129;-85
2022/03/05 04:27:41;;;;;;;15.43;7.22;;;;;;;-1.85;92.67;101684.09;4948391;28;20046;-84
2022/03/05 04:30:09;;;;;;;12.77;7.47;;;;;;;-1.83;91.86;101686.75;4966876;28;20048;-84
2022/03/05 04:32:37;;;;;;;16.85;8.60;;;;;;;-1.82;91.27;101693.66;4953096;28;20056;-85
2022/03/05 04:35:04;;;;;;;11.88;6.97;;;;;;;-1.85;91.08;101686.66;4940086;28;20046;-85
2022/03/05 04:37:31;;;;;;;13.32;6.85;;;;;;;-1.86;91.02;101686.56;4944094;28;20137;-85
2022/03/05 04:39:57;;;;;;;11.15;7.13;;;;;;;-1.91;90.74;101693.13;4947633;28;20062;-84
2022/03/05 04:42:24;;;;;;;15.02;7.35;;;;;;;-1.96;90.97;101689.41;4966233;28;20513;-84
2022/03/05 04:44:51;;;;;;;10.40;6.47;;;;;;;-2.01;90.86;101690.03;4961299;28;20220;-85
2022/03/05 04:47:17;;;;;;;10.95;7.07;;;;;;;-2.04;91.24;101691.50;4966491;28;20050;-84
2022/03/05 04:49:44;;;;;;;15.85;7.78;;;;;;;-2.00;90.02;101701.16;4949305;28;20087;-84
2022/03/05 04:52:11;;;;;;;13.55;7.68;;;;;;;-2.01;90.03;101707.97;4949819;28;20479;-85
2022/03/05 04:54:37;;;;;;;13.98;6.72;;;;;;;-2.06;90.26;101705.91;4950291;28;20385;-85
2022/03/05 04:57:04;;;;;;;14.73;9.00;;;;;;;-2.07;90.47;101705.03;4942204;28;20042;-85
2022/03/05 04:59:31;;;;;;;12.70;6.70;;;;;;;-2.08;90.53;101704.97;4963100;28;20053;-84
2022/03/05 05:01:58;;;;;;;16.00;8.57;;;;;;;-2.12;90.38;101701.31;4965519;28;20765;-85
2022/03/05 05:04:24;;;;;;;12.43;7.00;;;;;;;-2.14;91.26;101702.00;4964248;28;20059;-84
2022/03/05 05:06:51;;;;;;;14.20;7.57;;;;;;;-2.17;91.23;101707.84;4955439;28;20141;-84
2022/03/05 05:09:17;;;;;;;20.08;8.70;;;;;;;-2.20;92.24;101706.00;4961291;28;20042;-85
2022/03/05 05:11:44;;;;;;;12.60;7.25;;;;;;;-2.20;92.34;101702.56;4964000;28;20058;-83
2022/03/05 05:14:11;;;;;;;15.15;8.13;;;;;;;-2.23;92.31;101708.38;4964103;28;20057;-85
2022/03/05 05:16:38;;;;;;;14.40;7.25;;;;;;;-2.28;92.77;101704.66;4939552;28;20085;-85
2022/03/05 05:21:49;;;;;;;15.25;7.70;;;;;;;-2.34;93.30;101705.16;4959619;28;20107;-84
2022/03/05 05:24:15;;;;;;;14.70;7.05;;;;;;;-2.39;93.30;101711.66;4962481;28;20065;-84
2022/03/05 05:26:41;;;;;;;11.73;7.35;;;;;;;-2.43;93.51;101716.53;4952024;28;20038;-84
2022/03/05 05:29:08;;;;;;;16.10;8.90;;;;;;;-2.48;94.58;101713.69;4963986;28;20057;-85
2022/03/05 05:31:34;;;;;;;15.60;8.15;;;;;;;-2.53;94.31;101720.19;4965768;28;20051;-85
2022/03/05 05:34:01;;;;;;;17.17;8.60;;;;;;;-2.53;95.78;101717.63;4944004;28;20049;-85
2022/03/05 05:36:28;;;;;;;14.75;8.25;;;;;;;-2.51;96.06;101716.94;4962709;28;20056;-85
2022/03/05 05:38:54;;;;;;;15.60;8.15;;;;;;;-2.53;96.11;101727.91;4962547;28;20540;-85
2022/03/05 05:41:21;;;;;;;14.95;8.65;;;;;;;-2.55;96.88;101727.81;4940937;28;20050;-85
2022/03/05 05:43:48;;;;;;;19.00;9.63;;;;;;;-2.49;97.85;101724.72;4967436;28;20499;-85
2022/03/05 05:46:14;;;;;;;15.95;8.50;;;;;;;-2.47;97.23;101727.41;4961866;28;20049;-85
2022/03/05 05:48:41;;;;;;;18.65;9.55;;;;;;;-2.45;97.39;101725.81;4948958;28;20120;-85
2022/03/05 05:51:07;;;;;;;14.30;8.48;;;;;;;-2.44;97.74;101723.31;4952116;28;21183;-85
2022/03/05 05:53:34;;;;;;;20.60;9.95;;;;;;;-2.44;97.57;101725.88;4951023;28;20136;-85
2022/03/05 05:56:00;;;;;;;14.25;8.93;;;;;;;-2.45;97.80;101728.38;4966402;28;20066;-85
2022/03/05 05:58:27;;;;;;;15.25;8.13;;;;;;;-2.50;97.46;101723.84;4949665;28;20046;-84
2022/03/05 06:00:53;;;;;;;21.13;9.43;;;;;;;-2.53;98.14;101728.81;4965420;28;20064;-85
2022/03/05 06:03:20;;;;;;;19.38;9.70;;;;;;;-2.53;98.62;101725.34;4952337;28;20045;-85
2022/03/05 06:05:46;;;;;;;18.23;9.55;;;;;;;-2.55;98.16;101734.63;4949445;28;20785;-85
2022/03/05 06:08:13;;;;;;;16.15;8.85;;;;;;;-2.57;98.29;101728.50;4965168;28;20145;-85
2022/03/05 06:10:40;;;;;;;16.77;9.43;;;;;;;-2.57;99.14;101741.31;4965277;28;20061;-85
2022/03/05 06:13:06;;;;;;;16.17;9.00;;;;;;;-2.56;99.09;101740.53;4963376;28;20073;-85
2022/03/05 06:15:33;;;;;;;16.88;9.02;;;;;;;-2.60;98.43;101742.00;4950770;28;20050;-85
2022/03/05 06:17:59;;;;;;;14.55;8.18;;;;;;;-2.58;99.14;101737.88;4950245;28;20085;-85
2022/03/05 06:20:35;;;;;;;20.40;9.88;;;;;;;-2.57;99.81;101739.66;4951577;28;20042;-85
2022/03/05 06:23:01;;;;;;;19.30;10.30;;;;;;;-2.56;99.57;101737.97;4953078;28;20065;-85
2022/03/05 06:25:28;;;;;;;22.17;10.95;;;;;;;-2.53;99.53;101744.19;4944602;28;20054;-85
2022/03/05 06:27:55;;;;;;;19.65;9.15;;;;;;;-2.51;99.79;101741.72;4968647;28;20046;-84
2022/03/05 06:30:21;;;;;;;27.15;11.68;;;;;;;-2.47;100.00;101740.22;4955093;28;20485;-84
2022/03/05 06:32:48;;;;;;;20.35;9.77;;;;;;;-2.43;99.76;101743.06;4954696;28;20054;-81
2022/03/05 06:35:14;;;;;;;16.15;9.40;;;;;;;-2.41;99.23;101738.91;4948279;28;20042;-84
2022/03/05 06:37:41;;;;;;;17.38;9.77;;;;;;;-2.39;99.45;101747.56;4944354;28;20048;-83
2022/03/05 06:40:10;;;;;;;18.85;10.38;;;;;;;-2.37;99.59;101747.69;4948157;28;20054;-84
2022/03/05 06:42:38;;;;;;;17.08;10.07;;;;;;;-2.34;99.90;101750.44;4947299;28;20054;-82
2022/03/05 06:45:06;;;;;;;19.48;10.38;;;;;;;-2.28;99.76;101753.38;4962128;28;20058;-81
2022/03/05 06:47:32;;;;;;;18.10;9.80;;;;;;;-2.24;99.60;101757.91;4967581;28;20038;-85
2022/03/05 06:49:59;;;;;;;15.98;9.35;;;;;;;-2.21;99.81;101758.06;4960593;28;20512;-82
2022/03/05 06:52:26;;;;;;;15.82;8.85;;;;;;;-2.15;99.55;101765.28;4961638;28;20054;-81
2022/03/05 06:54:52;;;;;;;16.58;9.98;;;;;;;-2.12;99.54;101757.75;4958722;28;20057;-85
2022/03/05 06:57:19;;;;;;;17.92;10.48;;;;;;;-2.07;99.53;101764.06;4950860;28;20065;-80
2022/03/05 06:59:45;;;;;;;23.08;10.65;;;;;;;-2.04;98.96;101771.03;4964946;28;20051;-82
2022/03/05 07:02:12;;;;;;;19.25;9.43;;;;;;;-1.98;99.80;101763.72;4946307;28;20321;-86
2022/03/05 07:04:38;;;;;;;17.60;9.50;;;;;;;-1.93;99.21;101772.59;4944072;28;20046;-82
2022/03/05 07:07:05;;;;;;;18.70;9.85;;;;;;;-1.84;99.26;101772.22;4950060;28;20732;-83
2022/03/05 07:09:32;;;;;;;17.42;9.48;;;;;;;-1.68;98.53;101774.91;4940423;28;20043;-82
2022/03/05 07:11:59;;;;;;;16.58;10.00;;;;;;;-1.26;97.93;101774.75;4962354;28;20049;-82
2022/03/05 07:14:26;;;;;;;14.77;9.27;;;;;;;-0.74;97.53;101773.34;4963012;28;20061;-82
2022/03/05 07:16:53;;;;;;;16.95;9.52;;;;;;;-0.22;94.24;101768.44;4963634;28;20054;-82
2022/03/05 07:19:19;;;;;;;20.10;10.48;;;;;;;0.32;92.19;101778.94;4964962;28;20332;-83
2022/03/05 07:21:46;;;;;;;18.80;8.88;;;;;;;0.81;89.75;101777.06;4946821;28;20425;-83
2022/03/05 07:24:13;;;;;;;13.02;8.63;;;;;;;1.01;83.24;101777.16;4946507;28;20412;-83
2022/03/05 07:26:39;;;;;;;15.00;8.35;;;;;;;1.34;84.42;101777.84;4962547;28;20761;-86
2022/03/05 07:29:06;;;;;;;16.73;8.77;;;;;;;1.74;84.17;101781.41;4968108;28;20071;-82
2022/03/05 07:31:33;;;;;;;14.52;7.80;;;;;;;2.09;81.37;101788.13;4967146;28;20047;-85
2022/03/05 07:34:00;;;;;;;13.25;8.98;;;;;;;2.44;79.17;101782.75;4961752;28;20047;-82
2022/03/05 07:36:27;;;;;;;12.82;8.57;;;;;;;2.67;77.38;101781.09;4949951;28;20042;-82
2022/03/05 07:38:53;;;;;;;12.63;8.43;;;;;;;2.81;75.21;101784.28;4962234;28;22341;-86
2022/03/05 07:41:20;;;;;;;12.93;9.13;;;;;;;2.88;74.63;101783.72;4961985;28;20050;-82
2022/03/05 07:43:46;;;;;;;15.50;8.85;;;;;;;3.20;74.73;101788.41;4948298;28;20066;-84
2022/03/05 07:46:13;;;;;;;12.95;7.53;;;;;;;3.54;73.59;101780.22;4944517;28;20054;-83
2022/03/05 07:48:40;;;;;;;14.75;9.18;;;;;;;3.86;72.53;101784.84;4960406;28;20062;-85
2022/03/05 07:51:07;;;;;;;13.23;7.53;;;;;;;4.06;69.88;101786.47;4961458;28;20046;-83
2022/03/05 07:53:33;;;;;;;12.93;7.45;;;;;;;4.28;69.38;101789.81;4943935;28;20178;-82
2022/03/05 07:56:00;;;;;;;12.93;7.07;;;;;;;4.49;68.54;101784.50;4960056;28;20049;-83
2022/03/05 07:58:27;;;;;;;10.07;6.75;;;;;;;4.43;67.37;101787.78;4954836;28;20043;-82
2022/03/05 08:00:53;;;;;;;14.98;7.95;;;;;;;3.95;68.57;101778.31;4946897;28;20058;-84
2022/03/05 08:03:19;;;;;;;15.82;7.85;;;;;;;3.33;69.75;101782.88;4938130;28;20522;-86
2022/03/05 08:05:46;;;;;;;11.50;7.90;;;;;;;2.73;71.06;101789.13;4938745;28;20050;-87
2022/03/05 08:08:12;;;;;;;12.57;8.35;;;;;;;2.17;72.51;101787.59;4938687;28;20043;-85
2022/03/05 08:10:39;;;;;;;14.32;8.65;;;;;;;1.80;73.73;101792.88;4938316;28;20051;-84
2022/03/05 08:13:06;;;;;;;11.85;7.60;;;;;;;1.53;75.05;101796.81;4957551;28;20046;-82
2022/03/05 08:15:32;;;;;;;13.77;8.55;;;;;;;1.22;76.25;101795.34;4938350;28;20097;-82
2022/03/05 08:18:01;;;;;;;14.40;8.45;;;;;;;1.04;76.93;101795.34;4953149;28;20039;-82
2022/03/05 08:20:31;;;;;;;14.80;9.50;;;;;;;0.95;77.67;101793.19;4944050;28;20089;-84
2022/03/05 08:22:59;;;;;;;19.75;10.15;;;;;;;0.91;78.27;101799.03;4958521;28;20047;-82
2022/03/05 08:25:28;;;;;;;17.83;10.80;;;;;;;0.90;78.86;101789.50;4944548;28;20050;-81
2022/03/05 08:27:54;;;;;;;15.98;8.30;;;;;;;0.89;78.85;101786.06;4961879;28;20035;-82
2022/03/05 08:30:22;;;;;;;17.27;8.65;;;;;;;0.93;79.08;101784.53;4944235;28;20137;-83
2022/03/05 08:32:48;;;;;;;16.95;9.18;;;;;;;0.98;78.57;101785.63;4946283;28;20568;-85
2022/03/05 08:35:16;;;;;;;20.48;9.93;;;;;;;1.04;78.02;101796.22;4958667;28;20580;-82
2022/03/05 08:37:46;;;;;;;19.90;8.80;;;;;;;1.05;77.85;101791.97;4961201;28;20043;-84
2022/03/05 08:40:14;;;;;;;22.33;9.07;;;;;;;1.06;77.56;101793.75;4956286;28;20050;-84
2022/03/05 08:42:42;;;;;;;22.08;10.75;;;;;;;1.12;77.91;101794.00;4955495;28;20376;-83
2022/03/05 08:45:10;;;;;;;15.10;9.50;;;;;;;1.15;78.00;101796.75;4947255;28;20113;-86
2022/03/05 08:47:38;;;;;;;16.05;8.52;;;;;;;1.21;77.62;101780.69;4958538;28;20039;-86
2022/03/05 08:50:07;;;;;;;15.30;9.20;;;;;;;1.26;77.48;101789.53;4975930;28;20070;-86
2022/03/05 08:52:37;;;;;;;15.43;9.00;;;;;;;1.29;77.04;101787.97;4949945;28;20046;-83
2022/03/05 08:55:12;;;;;;;17.65;9.45;;;;;;;1.39;76.92;101789.28;4959212;28;20050;-85
2022/03/05 08:57:39;;;;;;;13.65;8.63;;;;;;;1.44;76.03;101784.34;4943479;28;20042;-83
2022/03/05 09:00:12;;;;;;;21.20;9.68;;;;;;;1.48;76.07;101779.38;4947155;28;20501;-82
2022/03/05 09:02:39;;;;;;;16.48;8.57;;;;;;;1.55;75.39;101785.75;4961087;28;20074;-83
2022/03/05 09:05:06;;;;;;;16.52;9.07;;;;;;;1.60;74.96;101776.50;4941643;28;20081;-87
2022/03/05 09:07:33;;;;;;;14.25;7.75;;;;;;;1.68;74.65;101781.13;4959863;28;20043;-82
2022/03/05 09:10:00;;;;;;;15.52;9.02;;;;;;;1.73;74.09;101777.91;4962932;28;20266;-83
2022/03/05 09:12:32;;;;;;;19.95;8.68;;;;;;;1.79;73.91;101770.47;4947867;28;20097;-83
2022/03/05 09:14:59;;;;;;;15.25;8.35;;;;;;;1.88;74.24;101779.44;4941798;28;20039;-83
2022/03/05 09:17:26;;;;;;;14.20;9.07;;;;;;;1.93;73.21;101784.00;4948398;28;20105;-83
2022/03/05 09:19:53;;;;;;;16.67;8.50;;;;;;;1.97;72.40;101780.72;4957702;28;20057;-84
2022/03/05 09:22:22;;;;;;;14.05;8.10;;;;;;;2.02;72.82;101777.47;4958030;28;20454;-82
2022/03/05 09:27:39;;;;;;;13.95;6.95;;;;;;;2.10;70.86;101774.41;4937427;28;20046;-83
2022/03/05 09:30:08;;;;;;;12.77;6.88;;;;;;;2.13;70.38;101778.84;4964411;28;20047;-84
2022/03/05 09:32:35;;;;;;;15.32;7.93;;;;;;;2.14;70.09;101765.97;4961118;28;20094;-85
2022/03/05 09:35:03;;;;;;;15.23;7.43;;;;;;;2.17;70.24;101772.09;4963711;28;20050;-83
2022/03/05 09:37:33;;;;;;;12.80;7.22;;;;;;;2.19;70.64;101768.78;4964445;28;20054;-84
2022/03/05 09:40:00;;;;;;;11.85;8.65;;;;;;;2.23;70.69;101767.19;4958317;28;20057;-85
2022/03/05 09:42:27;;;;;;;13.95;6.47;;;;;;;2.30;70.43;101777.84;4952191;28;20134;-82
2022/03/05 09:44:54;;;;;;;9.90;6.07;;;;;;;2.40;69.67;101768.81;4967698;28;20122;-85
2022/03/05 09:47:26;;;;;;;8.57;5.43;;;;;;;2.53;68.87;101769.31;4951406;28;20053;-83
2022/03/05 09:49:53;;;;;;;9.13;6.13;;;;;;;2.61;67.02;101763.66;4953336;28;21121;-82
2022/03/05 09:52:21;;;;;;;11.13;6.45;;;;;;;2.59;67.58;101765.28;4960170;28;20038;-83
2022/03/05 09:54:48;;;;;;;7.35;5.05;;;;;;;2.64;67.20;101766.34;4963301;28;20292;-86
2022/03/05 09:57:16;;;;;;;7.93;4.68;;;;;;;2.68;66.71;101761.31;4960716;28;20114;-86
2022/03/05 09:59:42;;;;;;;11.48;6.72;;;;;;;2.72;66.57;101758.91;4966969;28;20050;-84
2022/03/05 10:02:13;;;;;;;13.18;6.72;;;;;;;2.81;66.67;101759.28;4966512;28;20149;-83
2022/03/05 10:04:41;;;;;;;9.63;5.85;;;;;;;3.03;66.25;101770.50;4953813;28;20161;-83
2022/03/05 10:07:11;;;;;;;14.30;6.90;;;;;;;3.21;65.99;101765.19;4961427;28;20167;-84
2022/03/05 10:09:40;;;;;;;11.63;6.68;;;;;;;3.47;64.04;101765.31;4961258;28;20054;-85
2022/03/05 10:12:31;;;;;;;10.27;5.13;;;;;;;3.66;63.35;101769.44;4965762;28;20454;-83
2022/03/05 10:15:12;;;;;;;10.48;5.63;;;;;;;3.88;63.74;101763.34;4984910;28;20042;-83
2022/03/05 10:17:52;;;;;;;8.15;5.93;;;;;;;4.14;61.62;101755.63;4951396;28;20054;-85
2022/03/05 10:20:30;;;;;;;7.50;4.68;;;;;;;4.35;59.90;101759.81;4966096;28;20094;-85
2022/03/05 10:23:08;;;;;;;12.50;7.82;;;;;;;4.68;59.34;101754.88;4962861;28;20121;-84
2022/03/05 10:25:38;;;;;;;12.02;5.88;;;;;;;5.12;58.23;101744.16;4966885;28;20113;-85
2022/03/05 10:28:16;;;;;;;8.32;5.82;;;;;;;5.69;56.84;101744.97;4985363;28;20060;-85
2022/03/05 10:30:52;;;;;;;8.35;5.63;;;;;;;6.30;55.60;101738.00;4958060;28;20049;-87
2022/03/05 10:33:36;;;;;;;7.65;4.93;;;;;;;7.16;53.91;101735.72;4964183;28;20137;-84
2022/03/05 10:36:10;;;;;;;;;;;;;;;7.75;49.81;101740.47;4946918;28;20497;-84
2022/03/05 10:38:53;;;;;;;7.10;4.80;;;;;;;8.69;50.80;101729.16;4951494;28;19930;-84
2022/03/05 10:41:36;;;;;;;8.85;6.15;;;;;;;9.84;48.72;101731.63;4976222;28;20077;-84
2022/03/05 10:44:19;;;;;;;6.88;4.97;;;;;;;10.75;44.81;101731.59;4967265;28;20062;-84
2022/03/05 10:47:03;;;;;;;10.93;5.78;;;;;;;10.63;46.95;101721.91;4966053;28;20129;-87
2022/03/05 10:49:37;;;;;;;;;;;;;;;9.56;46.42;101733.00;4960524;28;20125;-86
2022/03/05 10:52:24;;;;;;;;;;;;;;;8.61;46.13;101738.59;4962154;28;19922;-82
2022/03/05 10:54:54;;;;;;;7.18;5.38;;;;;;;7.76;46.94;101742.22;4964924;28;19922;-82
2022/03/05 10:57:30;;;;;;;7.28;5.38;;;;;;;7.25;47.65;101739.44;4977597;28;20460;-81
2022/03/05 11:00:17;;;;;;;8.88;5.60;;;;;;;7.63;48.05;101738.50;4965578;28;20680;-84
2022/03/05 11:02:56;;;;;;;6.57;4.13;;;;;;;9.18;45.15;101728.16;4971385;28;20400;-83
2022/03/05 11:05:26;;;;;;;7.15;4.95;;;;;;;10.93;39.86;101718.63;4954715;28;20402;-84
2022/03/05 11:07:55;;;;;;;8.27;4.97;;;;;;;12.67;38.22;101719.19;4965973;28;20047;-84
2022/03/05 11:10:31;;;;;;;6.15;4.40;;;;;;;13.87;33.77;101718.88;4970019;28;20110;-82
2022/03/05 11:13:03;;;;;;;6.53;4.80;;;;;;;14.76;34.25;101713.88;4946215;28;20047;-84
2022/03/05 11:15:37;;;;;;;6.00;5.05;;;;;;;15.14;31.65;101717.00;4968935;28;20049;-83
2022/03/05 11:18:05;;;;;;;5.55;4.35;;;;;;;15.72;32.42;101712.75;4975205;28;20457;-83
2022/03/05 11:20:47;;;;;;;6.93;4.70;;;;;;;15.97;32.42;101710.72;4966433;28;20149;-83
2022/03/05 11:23:15;;;;;;;5.22;4.65;;;;;;;15.95;29.88;101714.25;4968354;28;20117;-82
2022/03/05 11:25:42;;;;;;;4.82;4.32;;;;;;;14.31;33.33;101715.97;4962685;28;20141;-82
2022/03/05 11:28:27;;;;;;;8.93;5.78;;;;;;;11.83;34.53;101713.81;4968492;28;20097;-83
2022/03/05 11:30:57;;;;;;;8.18;5.35;;;;;;;10.83;37.41;101721.19;4959041;28;20066;-83
2022/03/05 11:33:39;;;;;;;7.13;4.88;;;;;;;9.36;38.53;101719.66;4951743;28;20054;-86
2022/03/05 11:36:07;;;;;;;6.93;5.55;;;;;;;9.12;40.44;101725.44;4953323;28;20047;-82